Hauptseite
METAR-TAF:

METAR-TAF

Flughäfen :

Bohrplattform

Troll A, Norwegen

Breite: 60-38-42N, Länge: 3-43-29E, Höhe: 20 m

Beobachtung

Neuester Wetterbericht von vor 2 Stunden und 42 Minuten, um 23:20 UTC
Wind 13 kt aus Nord/Nordwest
Temperatur 8°C
Luftfeuchtigkeit 87%
Luftdruck 1025 hPa
Sichtweite 10 km oder mehr

METAR: ENQA 242320Z AUTO 33013KT 9999NDV OVC012/// 08/06 Q1025 W06/S4

Zeit: 04:02 (02:02 UTC)


TAF: fehlend

Wetterbeobachtungen und Prognosen von mehr als 4000 Flughäfen (METAR und TAF Bericht).

Die verfügbaren Stationen werden durch gelbe und rote Markierungen auf der Karte dargestellt.

Führen Sie die Maus auf sie, um den Namen der Station zu sehen.

Darauf klicken, um die Beobachtung von Wetterbeobachtungen und Prognosen zu sehen.

Um die Karte zu ändern : klicken Sie auf den grünen Tasten mit einem schwarzen Kreuz Zum Vergrößern, auf den grünen Button mit einem Gedankenstrich zu verkleinern, oder auf die grünen Pfeile für benachbarte Karten.


METAR-TAF: